Time;durP1;ratioP1;P1;durP2;ratioP2;P2;SDS_P1;SDS_P2;PMS_P1;PMS_P2;Temp;Humidity;BMP_temperature;BMP_pressure;BME280_temperature;BME280_humidity;BME280_pressure;Samples;Min_cycle;Max_cycle;Signal;HPM_P1;HPM_P2
2021/12/25 00:02:23;;;;;;;2.30;0.90;;;;;;;-4.29;75.08;100878.06;15298036;19;20089;-57
2021/12/25 00:07:45;;;;;;;1.27;0.43;;;;;;;-4.31;77.11;100884.72;15276772;19;20013;-57
2021/12/25 00:12:54;;;;;;;2.28;0.80;;;;;;;-4.36;75.75;100901.38;15297244;19;20022;-57
2021/12/25 00:17:56;;;;;;;0.50;0.50;;;;;;;-4.42;76.70;100901.78;15300160;19;20021;-57
2021/12/25 00:23:00;;;;;;;3.05;0.55;;;;;;;-4.47;78.32;100903.09;15296944;19;20011;-57
2021/12/25 00:28:21;;;;;;;1.70;0.52;;;;;;;-4.62;77.19;100913.88;15298738;19;20071;-57
2021/12/25 00:38:44;;;;;;;0.93;0.50;;;;;;;-4.72;77.16;100938.56;15296449;19;20095;-58
2021/12/25 00:43:53;;;;;;;2.42;0.77;;;;;;;-4.73;78.69;100939.31;15291829;19;20019;-58
2021/12/25 00:48:55;;;;;;;0.98;0.65;;;;;;;-4.75;79.67;100951.09;15300720;19;20086;-57
2021/12/25 00:53:56;;;;;;;1.80;0.70;;;;;;;-4.83;78.79;100948.81;15299081;19;20094;-58
2021/12/25 00:58:58;;;;;;;0.35;0.35;;;;;;;-4.94;80.17;100954.69;15297132;19;20081;-58
2021/12/25 01:04:06;;;;;;;1.70;0.60;;;;;;;-5.00;79.59;100960.22;15294901;19;20041;-58
2021/12/25 01:09:22;;;;;;;0.63;0.40;;;;;;;-5.10;79.95;100956.75;15272143;19;20017;-57
2021/12/25 01:14:42;;;;;;;1.45;0.60;;;;;;;-5.16;80.58;100958.06;15294122;19;20019;-57
2021/12/25 01:20:35;;;;;;;0.73;0.50;;;;;;;-5.20;80.16;100968.78;15292802;19;20092;-57
2021/12/25 01:25:59;;;;;;;1.85;0.88;;;;;;;-5.24;81.09;100964.19;15292571;19;20518;-56
2021/12/25 01:36:26;;;;;;;5.65;0.60;;;;;;;-5.37;80.25;100971.59;15295460;19;20028;-58
2021/12/25 01:42:03;;;;;;;2.42;0.52;;;;;;;-5.40;80.85;100971.34;15294666;19;20018;-57
2021/12/25 01:52:31;;;;;;;1.17;0.70;;;;;;;-5.50;83.09;100983.31;15291484;19;20395;-57
2021/12/25 01:57:32;;;;;;;0.45;0.43;;;;;;;-5.55;81.17;100992.25;15294015;19;20604;-57
2021/12/25 02:02:34;;;;;;;1.17;0.60;;;;;;;-5.64;81.28;100991.47;15292493;19;20030;-57
2021/12/25 02:07:43;;;;;;;0.70;0.50;;;;;;;-5.68;82.57;100991.97;15271213;19;20042;-55
2021/12/25 02:12:46;;;;;;;1.27;0.47;;;;;;;-5.69;82.55;101008.03;15266641;19;20022;-57
2021/12/25 02:18:14;;;;;;;3.20;0.65;;;;;;;-5.78;81.90;101012.34;15289669;19;20102;-57
2021/12/25 02:23:33;;;;;;;1.27;0.50;;;;;;;-5.79;82.62;101000.38;15285426;19;20014;-56
2021/12/25 02:28:35;;;;;;;9.45;0.77;;;;;;;-5.82;83.62;100992.44;15290840;19;20006;-56
2021/12/25 02:33:38;;;;;;;0.98;0.52;;;;;;;-5.76;82.59;101000.66;15291871;19;20015;-56
2021/12/25 02:38:40;;;;;;;0.30;0.30;;;;;;;-5.83;83.24;101003.41;15290075;19;20015;-56
2021/12/25 02:43:45;;;;;;;1.15;0.50;;;;;;;-5.88;81.81;101003.03;15287944;19;20489;-57
2021/12/25 02:48:49;;;;;;;0.70;0.40;;;;;;;-5.85;83.46;101005.84;15290433;19;20018;-57
2021/12/25 02:53:51;;;;;;;0.95;0.65;;;;;;;-5.90;83.05;101010.56;15288289;19;20022;-57
2021/12/25 02:58:53;;;;;;;0.77;0.60;;;;;;;-5.86;83.48;101015.13;15290672;19;20371;-56
2021/12/25 03:04:03;;;;;;;1.02;0.70;;;;;;;-5.96;82.73;101024.41;15286213;19;20022;-55
2021/12/25 03:09:31;;;;;;;4.03;0.73;;;;;;;-6.02;82.27;101017.16;15267313;19;20033;-55
2021/12/25 03:15:01;;;;;;;2.38;0.65;;;;;;;-6.05;83.78;101032.19;15266225;19;20018;-57
2021/12/25 03:20:04;;;;;;;0.50;0.32;;;;;;;-6.15;84.37;101027.06;15287424;19;20019;-56
2021/12/25 03:25:10;;;;;;;0.95;0.50;;;;;;;-6.16;85.06;101038.00;15285070;19;20027;-56
2021/12/25 03:30:15;;;;;;;0.63;0.30;;;;;;;-6.30;84.92;101040.25;15288861;19;20028;-56
2021/12/25 03:35:17;;;;;;;3.40;0.47;;;;;;;-6.27;84.72;101034.53;15302809;19;20022;-57
2021/12/25 03:40:19;;;;;;;0.40;0.40;;;;;;;-6.42;84.96;101039.16;15303821;19;20098;-56
2021/12/25 03:45:20;;;;;;;13.77;0.73;;;;;;;-6.42;86.17;101040.03;15299455;19;20031;-56
2021/12/25 04:01:45;;;;;;;0.50;0.40;;;;;;;-6.67;86.19;101046.25;15301601;19;20406;-56
2021/12/25 04:07:05;;;;;;;2.50;0.90;;;;;;;-6.63;87.18;101044.13;15274252;19;20876;-57
2021/12/25 04:12:12;;;;;;;1.05;0.57;;;;;;;-6.68;87.02;101054.66;15298459;19;20038;-57
2021/12/25 04:17:14;;;;;;;1.15;0.50;;;;;;;-6.82;86.84;101053.41;15300318;19;20027;-56
2021/12/25 04:22:22;;;;;;;1.08;0.55;;;;;;;-6.89;87.44;101051.06;15297588;19;20018;-53
2021/12/25 04:27:24;;;;;;;0.32;0.32;;;;;;;-6.89;87.75;101061.25;15294957;19;20112;-56
2021/12/25 04:42:34;;;;;;;2.88;0.98;;;;;;;-6.89;87.74;101064.72;15297720;19;20002;-55
2021/12/25 05:04:23;;;;;;;1.80;0.60;;;;;;;-6.88;87.76;101070.69;15296882;19;20650;-56
2021/12/25 05:09:41;;;;;;;1.80;0.60;;;;;;;-7.00;87.40;101076.44;15272576;19;20092;-55
2021/12/25 05:14:43;;;;;;;3.53;0.98;;;;;;;-7.02;88.58;101080.50;15293220;19;20034;-56
2021/12/25 05:19:45;;;;;;;1.30;0.70;;;;;;;-7.02;88.42;101088.13;15293318;19;20042;-57
2021/12/25 05:24:47;;;;;;;2.45;0.57;;;;;;;-7.08;88.22;101084.16;15293703;19;20018;-57
2021/12/25 05:29:49;;;;;;;0.63;0.43;;;;;;;-7.14;88.26;101102.28;15294701;19;20018;-55
2021/12/25 05:35:11;;;;;;;1.02;0.60;;;;;;;-7.13;88.76;101097.34;15294873;19;20078;-53
2021/12/25 05:40:47;;;;;;;0.30;0.30;;;;;;;-7.21;88.87;101108.44;15289015;19;20039;-56
2021/12/25 05:45:48;;;;;;;0.50;0.50;;;;;;;-7.30;88.98;101105.06;15292408;19;20647;-56
2021/12/25 05:51:05;;;;;;;1.05;0.60;;;;;;;-7.35;89.85;101103.75;15291120;19;20042;-55
2021/12/25 05:56:19;;;;;;;1.23;0.63;;;;;;;-7.34;90.01;101103.88;15292286;19;20014;-55
2021/12/25 06:01:49;;;;;;;1.60;0.50;;;;;;;-7.26;90.61;101107.13;15291169;19;20019;-57
2021/12/25 06:06:58;;;;;;;1.10;0.57;;;;;;;-7.33;90.28;101115.81;15275049;19;20022;-56
2021/12/25 06:12:11;;;;;;;0.65;0.38;;;;;;;-7.32;90.38;101129.47;15289334;19;20007;-56
2021/12/25 06:17:13;;;;;;;2.00;0.60;;;;;;;-7.39;90.26;101122.88;15288956;19;20034;-55
2021/12/25 06:22:28;;;;;;;1.08;0.52;;;;;;;-7.40;91.14;101136.38;15289003;19;20010;-55
2021/12/25 06:27:38;;;;;;;3.13;0.77;;;;;;;-7.47;91.47;101137.44;15289915;19;20514;-56
2021/12/25 06:32:58;;;;;;;;;;;;;;;-7.50;90.87;101137.16;15291737;19;20034;-56
2021/12/25 06:38:18;;;;;;;2.10;0.60;;;;;;;-7.64;90.84;101148.56;15294313;19;19919;-56
2021/12/25 06:43:35;;;;;;;2.92;0.50;;;;;;;-7.58;91.03;101152.44;15288911;19;20037;-56
2021/12/25 06:48:38;;;;;;;1.65;0.70;;;;;;;-7.65;90.83;101158.59;15289020;19;20018;-56
2021/12/25 06:53:46;;;;;;;7.22;0.50;;;;;;;-7.62;91.56;101166.50;15289270;19;20019;-56
2021/12/25 06:59:17;;;;;;;0.70;0.47;;;;;;;-7.75;90.85;101164.44;15289443;19;20466;-56
2021/12/25 07:04:34;;;;;;;0.63;0.47;;;;;;;-7.71;91.42;101170.72;15285503;19;20444;-57
2021/12/25 07:10:04;;;;;;;1.17;0.57;;;;;;;-7.67;91.95;101176.25;15287538;19;20014;-56
2021/12/25 07:15:58;;;;;;;0.60;0.40;;;;;;;-7.77;91.60;101185.41;15155519;19;2004441;-56
2021/12/25 07:21:26;;;;;;;1.10;0.68;;;;;;;-7.77;92.42;101185.41;15286874;19;20620;-54
2021/12/25 07:27:05;;;;;;;3.05;1.08;;;;;;;-7.86;92.53;101195.56;15282494;19;20015;-56
2021/12/25 07:32:24;;;;;;;5.10;1.10;;;;;;;-7.89;92.65;101195.28;15283996;19;20457;-56
2021/12/25 07:37:26;;;;;;;4.15;0.80;;;;;;;-7.87;92.80;101203.94;15288208;19;20010;-56
2021/12/25 07:42:28;;;;;;;1.85;0.63;;;;;;;-7.97;92.59;101211.41;15285785;19;20014;-56
2021/12/25 07:47:40;;;;;;;1.23;0.90;;;;;;;-8.01;92.68;101211.13;15285441;19;20066;-56
2021/12/25 07:52:42;;;;;;;0.73;0.63;;;;;;;-8.04;93.05;101213.38;15286065;19;20031;-54
2021/12/25 07:57:44;;;;;;;2.03;0.75;;;;;;;-8.08;93.44;101216.34;15285360;19;20015;-55
2021/12/25 08:02:54;;;;;;;2.63;0.75;;;;;;;-8.02;93.57;101224.56;15286517;19;20010;-55
2021/12/25 08:08:10;;;;;;;3.42;0.85;;;;;;;-7.96;93.12;101223.38;15261671;19;20018;-55
2021/12/25 08:13:13;;;;;;;4.10;1.00;;;;;;;-7.89;92.59;101230.88;15282364;19;20094;-53
2021/12/25 08:18:15;;;;;;;4.65;1.88;;;;;;;-7.93;92.31;101224.56;15287356;19;20014;-54
2021/12/25 08:23:47;;;;;;;15.52;2.60;;;;;;;-7.87;92.50;101234.44;15295952;19;20018;-56
2021/12/25 08:29:08;;;;;;;8.15;2.35;;;;;;;-7.77;92.33;101246.44;15300270;19;20027;-54
2021/12/25 08:34:38;;;;;;;5.45;1.85;;;;;;;-7.74;92.34;101252.69;15297875;19;20015;-55
2021/12/25 08:39:46;;;;;;;4.78;2.03;;;;;;;-7.68;91.82;101257.50;15298031;19;20011;-55
2021/12/25 08:50:08;;;;;;;18.23;2.72;;;;;;;-7.44;91.94;101263.16;15298848;19;20040;-55
2021/12/25 08:55:10;;;;;;;5.13;1.95;;;;;;;-7.32;91.60;101270.31;15298480;19;20685;-57
2021/12/25 09:00:15;;;;;;;9.82;1.65;;;;;;;-7.28;90.83;101282.59;15293474;19;20093;-56
2021/12/25 09:05:28;;;;;;;5.15;2.03;;;;;;;-7.13;90.39;101267.88;15271412;19;20014;-56
2021/12/25 09:10:30;;;;;;;11.65;2.80;;;;;;;-7.02;89.66;101276.53;15295514;19;20006;-55
2021/12/25 09:15:32;;;;;;;6.90;1.63;;;;;;;-6.90;89.24;101278.44;15296737;19;20013;-56
2021/12/25 09:20:34;;;;;;;7.40;1.80;;;;;;;-6.76;88.82;101275.53;15294556;19;20010;-56
2021/12/25 09:25:36;;;;;;;5.18;1.88;;;;;;;-6.63;88.05;101283.59;15292834;19;20011;-56
2021/12/25 09:30:38;;;;;;;8.95;2.83;;;;;;;-6.50;87.75;101289.81;15293827;19;20086;-55
2021/12/25 09:35:40;;;;;;;17.17;7.22;;;;;;;-6.33;87.03;101279.53;15294858;19;20014;-56
2021/12/25 09:40:42;;;;;;;27.33;12.48;;;;;;;-6.08;86.42;101281.78;15296313;19;20009;-57
2021/12/25 09:45:44;;;;;;;9.02;3.08;;;;;;;-5.93;84.95;101277.16;15294317;19;20417;-57
2021/12/25 09:50:46;;;;;;;7.68;3.13;;;;;;;-5.66;83.49;101288.06;15295663;19;20081;-55
2021/12/25 09:55:48;;;;;;;5.05;2.00;;;;;;;-5.24;82.64;101285.91;15296053;19;20074;-57
2021/12/25 10:01:00;;;;;;;8.25;2.90;;;;;;;-4.88;81.38;101287.31;15296311;19;20020;-58
2021/12/25 10:06:35;;;;;;;13.13;3.53;;;;;;;-4.63;78.98;101300.53;15279968;19;20018;-58
2021/12/25 10:11:36;;;;;;;9.65;1.73;;;;;;;-4.49;78.89;101288.97;15291988;19;20426;-58
2021/12/25 10:16:38;;;;;;;11.65;3.80;;;;;;;-4.17;78.81;101298.44;15290010;19;20015;-57
2021/12/25 10:21:40;;;;;;;4.70;1.80;;;;;;;-3.99;78.73;101306.78;15289230;19;20085;-59
2021/12/25 10:26:47;;;;;;;17.17;3.70;;;;;;;-3.98;76.49;101282.06;15289769;19;20030;-59
2021/12/25 10:31:55;;;;;;;20.08;4.22;;;;;;;-3.86;75.79;101289.88;15290679;19;20486;-58
2021/12/25 10:37:07;;;;;;;29.95;6.57;;;;;;;-3.81;74.60;101286.94;15292932;19;20014;-58
2021/12/25 10:42:15;;;;;;;22.23;3.83;;;;;;;-3.63;75.75;101282.44;15289108;19;20410;-59
2021/12/25 10:47:22;;;;;;;24.42;5.70;;;;;;;-3.57;75.25;101275.25;15290860;19;20070;-58
2021/12/25 10:52:31;;;;;;;31.08;6.00;;;;;;;-3.59;74.31;101270.75;15291075;19;20020;-59
2021/12/25 10:57:40;;;;;;;13.85;2.80;;;;;;;-3.46;74.58;101278.69;15292019;19;20557;-59
2021/12/25 11:02:57;;;;;;;8.85;1.65;;;;;;;-3.35;74.12;101271.84;15287762;19;20347;-59
2021/12/25 11:08:20;;;;;;;25.35;6.15;;;;;;;-3.35;74.46;101265.84;15285686;19;20022;-59
2021/12/25 11:13:30;;;;;;;17.58;2.90;;;;;;;-3.15;74.66;101259.75;15286474;19;20077;-61
2021/12/25 11:18:50;;;;;;;19.33;4.20;;;;;;;-2.92;73.92;101264.16;15287795;19;20105;-61
2021/12/25 11:24:07;;;;;;;12.68;4.65;;;;;;;-2.98;73.25;101273.91;15284925;19;20035;-61
2021/12/25 11:29:12;;;;;;;11.02;3.80;;;;;;;-2.93;73.65;101270.03;15286760;19;20033;-61
2021/12/25 11:34:16;;;;;;;4.53;0.95;;;;;;;-3.01;73.80;101264.31;15288830;19;20040;-61
2021/12/25 11:39:22;;;;;;;2.80;0.95;;;;;;;-2.79;73.56;101266.91;15287706;19;20082;-61
2021/12/25 11:44:45;;;;;;;2.40;1.05;;;;;;;-2.88;73.18;101281.56;15288250;19;20074;-61
2021/12/25 11:49:54;;;;;;;6.68;1.80;;;;;;;-2.92;73.04;101284.66;15289459;19;20667;-59
2021/12/25 11:55:24;;;;;;;5.28;1.40;;;;;;;-2.79;73.05;101271.13;15295617;19;20082;-61
2021/12/25 12:00:53;;;;;;;4.43;0.93;;;;;;;-2.80;72.97;101259.97;15194994;19;2004448;-61
2021/12/25 12:06:00;;;;;;;1.77;0.70;;;;;;;-2.71;73.73;101257.25;15296472;19;20010;-62
2021/12/25 12:11:22;;;;;;;8.85;1.80;;;;;;;-2.63;73.42;101252.72;15274902;19;20020;-62
2021/12/25 12:16:50;;;;;;;2.03;1.02;;;;;;;-2.67;74.50;101244.78;15299187;19;20408;-62
2021/12/25 12:22:28;;;;;;;4.28;0.82;;;;;;;-2.91;73.46;101248.91;15296821;19;20467;-62
2021/12/25 12:27:37;;;;;;;4.68;1.40;;;;;;;-2.84;74.58;101247.69;15296780;19;20006;-61
2021/12/25 12:32:44;;;;;;;3.38;0.90;;;;;;;-2.90;73.98;101248.13;15293059;19;20022;-61
2021/12/25 12:37:46;;;;;;;5.00;1.38;;;;;;;-2.88;74.02;101251.69;15291876;19;20011;-62
2021/12/25 12:42:51;;;;;;;1.02;0.57;;;;;;;-2.92;73.46;101246.22;15291654;19;20431;-62
2021/12/25 12:48:16;;;;;;;1.35;0.60;;;;;;;-3.08;73.41;101249.22;15295716;19;20021;-61
2021/12/25 12:53:19;;;;;;;0.80;0.50;;;;;;;-3.14;72.54;101249.63;15297590;19;20023;-61
2021/12/25 12:58:23;;;;;;;4.00;0.80;;;;;;;-3.27;72.84;101255.47;15298862;19;20484;-61
2021/12/25 13:03:37;;;;;;;3.45;0.77;;;;;;;-3.22;72.75;101245.56;15295806;19;20098;-61
2021/12/25 13:08:52;;;;;;;1.30;0.68;;;;;;;-3.22;72.94;101258.38;15270672;19;20022;-61
2021/12/25 13:13:58;;;;;;;1.38;0.70;;;;;;;-3.28;71.95;101268.13;15294254;19;20069;-61
2021/12/25 13:19:03;;;;;;;2.78;1.00;;;;;;;-3.37;74.07;101261.50;15297299;19;20033;-61
2021/12/25 13:24:11;;;;;;;0.90;0.70;;;;;;;-3.44;74.33;101264.34;15295144;19;20543;-61
2021/12/25 13:29:18;;;;;;;2.25;0.70;;;;;;;-3.42;73.27;101267.91;15297555;19;20367;-60
2021/12/25 13:34:23;;;;;;;2.50;0.65;;;;;;;-3.44;74.42;101261.78;15294622;19;20046;-61
2021/12/25 13:39:28;;;;;;;5.72;1.08;;;;;;;-3.33;72.77;101264.28;15296814;19;20572;-60
2021/12/25 13:44:34;;;;;;;2.78;1.02;;;;;;;-3.42;73.56;101267.03;15294640;19;20014;-60
2021/12/25 13:49:47;;;;;;;3.13;1.02;;;;;;;-3.49;74.08;101265.63;15295635;19;20753;-60
2021/12/25 13:54:54;;;;;;;2.28;1.02;;;;;;;-3.54;74.63;101272.06;15294896;19;20126;-60
2021/12/25 14:00:02;;;;;;;2.80;1.30;;;;;;;-3.57;75.75;101275.25;15295077;19;20010;-60
2021/12/25 14:05:13;;;;;;;2.65;1.10;;;;;;;-3.68;75.04;101280.25;15188756;19;2004234;-60
2021/12/25 14:10:18;;;;;;;4.25;1.50;;;;;;;-3.71;76.16;101274.88;15293357;19;20045;-59
2021/12/25 14:15:26;;;;;;;2.47;0.93;;;;;;;-3.67;75.25;101276.94;15291440;19;20102;-61
2021/12/25 14:20:30;;;;;;;1.92;1.10;;;;;;;-3.69;74.52;101291.25;15292165;19;20006;-60
2021/12/25 14:25:39;;;;;;;2.05;1.05;;;;;;;-3.85;75.55;101282.31;15291719;19;20070;-60
2021/12/25 14:31:00;;;;;;;1.40;0.90;;;;;;;-3.94;76.10;101273.91;15291632;19;20190;-60
2021/12/25 14:36:10;;;;;;;3.67;1.23;;;;;;;-3.97;76.83;101283.88;15289905;19;20035;-60
2021/12/25 14:41:15;;;;;;;5.30;1.55;;;;;;;-4.07;77.65;101273.63;15291138;19;20021;-60
2021/12/25 14:46:19;;;;;;;9.32;2.67;;;;;;;-4.06;78.14;101278.00;15290686;19;20366;-59
2021/12/25 14:51:23;;;;;;;6.45;2.20;;;;;;;-4.20;78.33;101277.72;15291250;19;20046;-59
2021/12/25 14:56:35;;;;;;;5.43;2.03;;;;;;;-4.19;78.21;101273.50;15291077;19;20014;-59
2021/12/25 15:01:49;;;;;;;8.40;3.83;;;;;;;-4.28;79.58;101273.63;15290186;19;20077;-60
2021/12/25 15:07:06;;;;;;;12.10;4.07;;;;;;;-4.37;79.76;101273.72;15288481;19;20438;-60
2021/12/25 15:12:25;;;;;;;9.07;3.03;;;;;;;-4.47;80.33;101272.06;15287974;19;20018;-60
2021/12/25 15:17:30;;;;;;;10.05;4.95;;;;;;;-4.62;81.45;101276.78;15289112;19;20034;-58
2021/12/25 15:22:32;;;;;;;11.57;4.78;;;;;;;-4.73;81.44;101281.72;15288081;19;20021;-59
2021/12/25 15:27:37;;;;;;;6.70;2.47;;;;;;;-4.78;81.83;101278.78;15288685;19;20078;-58
2021/12/25 15:32:42;;;;;;;7.88;2.58;;;;;;;-4.89;82.70;101280.41;15302955;19;20082;-60
2021/12/25 15:37:49;;;;;;;9.98;2.90;;;;;;;-4.98;84.22;101272.84;15305156;19;20033;-58
2021/12/25 15:42:51;;;;;;;9.38;2.60;;;;;;;-5.03;85.15;101270.63;15303019;19;20404;-58
2021/12/25 15:47:55;;;;;;;6.60;2.53;;;;;;;-5.11;85.76;101271.66;15303006;19;20013;-58
2021/12/25 15:52:58;;;;;;;8.30;2.30;;;;;;;-5.18;86.22;101272.75;15302804;19;20017;-58
2021/12/25 15:58:13;;;;;;;6.65;1.92;;;;;;;-5.24;86.45;101268.03;15303454;19;20010;-58
2021/12/25 16:03:26;;;;;;;6.18;2.45;;;;;;;-5.35;87.04;101269.59;15299479;19;20078;-58
2021/12/25 16:08:43;;;;;;;9.18;3.22;;;;;;;-5.39;87.61;101269.19;15276035;19;20470;-58
2021/12/25 16:13:46;;;;;;;7.65;2.92;;;;;;;-5.53;87.70;101271.41;15298802;19;20090;-58
2021/12/25 16:18:50;;;;;;;11.82;3.45;;;;;;;-5.56;88.39;101267.72;15302282;19;20014;-57
2021/12/25 16:23:52;;;;;;;11.52;3.83;;;;;;;-5.64;88.55;101269.59;15298395;19;20011;-58
2021/12/25 16:28:54;;;;;;;15.52;4.10;;;;;;;-5.73;88.78;101273.88;15300978;19;20410;-57
2021/12/25 16:33:56;;;;;;;16.52;6.57;;;;;;;-5.85;88.87;101271.09;15299403;19;20017;-58
2021/12/25 16:39:01;;;;;;;11.27;4.05;;;;;;;-5.95;88.93;101282.13;15298215;19;20011;-58
2021/12/25 16:44:06;;;;;;;13.05;3.85;;;;;;;-5.98;89.55;101294.63;15300001;19;20545;-57
2021/12/25 16:49:07;;;;;;;10.80;4.00;;;;;;;-6.05;89.53;101303.38;15297088;19;20598;-58
2021/12/25 16:54:11;;;;;;;9.68;4.63;;;;;;;-6.12;89.50;101295.03;15300547;19;20010;-59
2021/12/25 16:59:12;;;;;;;20.05;6.43;;;;;;;-6.20;90.15;101298.50;15297212;19;20006;-57
2021/12/25 17:04:29;;;;;;;19.30;7.53;;;;;;;-6.28;90.54;101298.69;15295606;19;20114;-58
2021/12/25 17:09:37;;;;;;;14.65;5.43;;;;;;;-6.35;91.07;101296.38;15272124;19;20031;-59
2021/12/25 17:14:39;;;;;;;16.27;5.50;;;;;;;-6.41;90.92;101301.78;15296578;19;20017;-57
2021/12/25 17:19:41;;;;;;;16.17;6.50;;;;;;;-6.51;90.87;101309.31;15297887;19;20018;-58
2021/12/25 17:24:43;;;;;;;23.38;8.20;;;;;;;-6.65;91.22;101305.47;15297093;19;20070;-56
2021/12/25 17:29:44;;;;;;;52.33;12.90;;;;;;;-6.73;91.64;101314.03;15297516;19;20090;-57
2021/12/25 17:34:46;;;;;;;49.58;13.93;;;;;;;-6.84;91.80;101318.13;15295376;19;20345;-57
2021/12/25 17:39:52;;;;;;;20.67;7.95;;;;;;;-6.90;92.27;101321.72;15296170;19;20434;-57
2021/12/25 17:44:53;;;;;;;9.23;3.65;;;;;;;-6.95;92.77;101319.66;15295840;19;20014;-57
2021/12/25 17:49:55;;;;;;;25.58;6.03;;;;;;;-7.01;93.08;101313.97;15291225;19;20021;-58
2021/12/25 17:54:57;;;;;;;24.00;5.05;;;;;;;-7.14;93.06;101317.00;15294568;19;20081;-57
2021/12/25 17:59:58;;;;;;;15.43;4.80;;;;;;;-7.26;93.16;101312.38;15293834;19;20018;-56
2021/12/25 18:05:20;;;;;;;11.90;4.47;;;;;;;-7.37;93.42;101313.88;15293090;19;20068;-58
2021/12/25 18:10:35;;;;;;;8.60;3.78;;;;;;;-7.53;93.34;101314.94;15184692;19;2004344;-58
2021/12/25 18:15:37;;;;;;;9.57;3.75;;;;;;;-7.64;93.63;101323.13;15290210;19;20494;-57
2021/12/25 18:20:41;;;;;;;12.00;4.88;;;;;;;-7.73;93.68;101314.63;15291980;19;20110;-58
2021/12/25 18:25:52;;;;;;;12.20;5.00;;;;;;;-7.83;93.91;101307.75;15294044;19;20090;-56
2021/12/25 18:30:53;;;;;;;12.63;4.03;;;;;;;-7.86;94.13;101325.25;15294221;19;20035;-57
2021/12/25 18:35:56;;;;;;;10.65;4.28;;;;;;;-7.78;94.59;101329.41;15292163;19;20086;-56
2021/12/25 18:40:59;;;;;;;10.40;4.60;;;;;;;-7.76;95.08;101348.28;15290222;19;20034;-57
2021/12/25 18:46:01;;;;;;;14.18;5.57;;;;;;;-7.70;95.25;101359.06;15280025;19;20665;-57
2021/12/25 18:51:04;;;;;;;13.82;5.25;;;;;;;-7.76;95.01;101353.38;15290052;19;20085;-58
2021/12/25 18:56:06;;;;;;;9.10;4.40;;;;;;;-7.62;95.30;101358.94;15290262;19;20011;-58
2021/12/25 19:01:14;;;;;;;9.13;3.88;;;;;;;-7.57;95.00;101347.53;15291145;19;20014;-57
2021/12/25 19:06:41;;;;;;;16.08;4.10;;;;;;;-7.57;94.79;101342.47;15264986;19;20014;-58
2021/12/25 19:11:43;;;;;;;13.80;3.95;;;;;;;-7.58;94.70;101350.81;15287816;19;20017;-58
2021/12/25 19:16:45;;;;;;;13.63;3.08;;;;;;;-7.58;94.82;101355.91;15289210;19;20101;-58
2021/12/25 19:21:47;;;;;;;13.20;4.35;;;;;;;-7.64;94.54;101359.66;15287530;19;20059;-58
2021/12/25 19:26:49;;;;;;;17.05;4.72;;;;;;;-7.65;94.66;101355.31;15287200;19;20035;-57
2021/12/25 19:31:51;;;;;;;10.85;5.05;;;;;;;-7.73;94.67;101350.22;15287917;19;20018;-57
2021/12/25 19:36:52;;;;;;;12.80;4.78;;;;;;;-7.77;94.71;101349.03;15288488;19;20082;-58
2021/12/25 19:41:54;;;;;;;10.00;4.50;;;;;;;-7.80;95.00;101343.63;15286731;19;20037;-58
2021/12/25 19:46:56;;;;;;;13.10;4.68;;;;;;;-7.82;95.21;101340.94;15285322;19;20014;-58
2021/12/25 19:51:58;;;;;;;15.02;5.57;;;;;;;-7.79;95.23;101337.81;15285094;19;20083;-58
2021/12/25 19:57:02;;;;;;;13.27;5.90;;;;;;;-7.77;95.34;101348.13;15287819;19;20593;-58
2021/12/25 20:02:07;;;;;;;10.35;4.47;;;;;;;-7.73;95.40;101340.03;15286816;19;20559;-58
2021/12/25 20:07:14;;;;;;;15.75;5.40;;;;;;;-7.72;95.45;101335.09;15258407;19;20015;-57
2021/12/25 20:12:16;;;;;;;11.07;3.92;;;;;;;-7.75;95.36;101337.34;15283872;19;20508;-58
2021/12/25 20:17:18;;;;;;;9.73;3.50;;;;;;;-7.73;95.53;101330.78;15296259;19;20528;-58
2021/12/25 20:22:20;;;;;;;13.05;4.28;;;;;;;-7.74;95.43;101334.06;15295623;19;20097;-58
2021/12/25 20:27:21;;;;;;;13.55;3.75;;;;;;;-7.68;95.48;101321.94;15300804;19;20086;-59
2021/12/25 20:32:23;;;;;;;7.15;2.60;;;;;;;-7.67;95.56;101311.03;15303117;19;20018;-58
2021/12/25 20:37:25;;;;;;;6.38;2.60;;;;;;;-7.67;95.46;101300.88;15306776;19;20059;-58
2021/12/25 20:42:26;;;;;;;10.82;3.78;;;;;;;-7.74;95.24;101305.22;15297927;19;20022;-58
2021/12/25 20:47:28;;;;;;;5.05;2.10;;;;;;;-7.78;95.03;101313.28;15295108;19;20019;-58
2021/12/25 20:52:30;;;;;;;13.63;5.60;;;;;;;-7.88;95.21;101308.91;15297666;19;20815;-58
2021/12/25 20:57:31;;;;;;;21.13;7.20;;;;;;;-7.89;95.45;101305.47;15299232;19;20492;-57
2021/12/25 21:02:42;;;;;;;8.80;4.32;;;;;;;-7.94;95.33;101304.16;15294486;19;20010;-56
2021/12/25 21:07:55;;;;;;;9.05;3.20;;;;;;;-7.94;95.76;101309.22;15293362;19;20608;-58
2021/12/25 21:12:58;;;;;;;6.82;2.63;;;;;;;-8.02;95.94;101299.94;15293625;19;20094;-58
2021/12/25 21:18:01;;;;;;;3.78;2.20;;;;;;;-8.04;95.71;101297.25;15296446;19;20014;-57
2021/12/25 21:23:04;;;;;;;11.93;2.80;;;;;;;-7.99;95.53;101295.16;15294880;19;20022;-58
2021/12/25 21:28:06;;;;;;;5.88;2.45;;;;;;;-8.00;95.65;101283.16;15292384;19;20489;-58
2021/12/25 21:33:09;;;;;;;5.45;2.67;;;;;;;-8.05;95.46;101295.44;15295409;19;20086;-58
2021/12/25 21:38:11;;;;;;;7.03;2.88;;;;;;;-8.13;95.20;101296.31;15298248;19;20082;-56
2021/12/25 21:43:13;;;;;;;7.72;2.50;;;;;;;-8.17;95.72;101287.50;15293293;19;20014;-58
2021/12/25 21:48:15;;;;;;;7.53;2.15;;;;;;;-8.05;96.32;101295.44;15294106;19;20288;-58
2021/12/25 21:53:16;;;;;;;5.78;2.60;;;;;;;-8.14;95.73;101279.28;15292397;19;20082;-58
2021/12/25 21:58:19;;;;;;;4.93;2.35;;;;;;;-8.17;95.73;101281.50;15293099;19;20086;-58
2021/12/25 22:03:32;;;;;;;5.78;2.65;;;;;;;-8.23;95.60;101271.63;15288908;19;20475;-58
2021/12/25 22:08:46;;;;;;;8.20;2.30;;;;;;;-8.33;95.88;101270.56;15265619;19;20010;-58
2021/12/25 22:13:53;;;;;;;2.88;1.80;;;;;;;-8.37;95.66;101259.22;15290868;19;20497;-58
2021/12/25 22:18:55;;;;;;;5.80;2.22;;;;;;;-8.41;95.80;101244.41;15292180;19;20501;-58
2021/12/25 22:23:57;;;;;;;4.68;2.35;;;;;;;-8.47;95.88;101249.78;15290114;19;20011;-58
2021/12/25 22:28:58;;;;;;;18.27;3.33;;;;;;;-8.52;95.63;101257.72;15290445;19;20020;-57
2021/12/25 22:34:00;;;;;;;17.75;4.55;;;;;;;-8.58;95.54;101266.50;15293186;19;20106;-58
2021/12/25 22:39:04;;;;;;;12.60;4.75;;;;;;;-8.64;95.67;101252.31;15291378;19;20119;-57
2021/12/25 22:44:05;;;;;;;17.50;4.82;;;;;;;-8.71;95.71;101256.78;15291976;19;20038;-58
2021/12/25 22:49:07;;;;;;;15.40;4.85;;;;;;;-8.72;95.93;101254.97;15287921;19;20415;-57
2021/12/25 22:54:12;;;;;;;10.70;4.97;;;;;;;-8.71;95.89;101255.84;15289148;19;20010;-58
2021/12/25 22:59:14;;;;;;;14.85;4.53;;;;;;;-8.83;95.47;101250.41;15289484;19;20421;-58
2021/12/25 23:04:26;;;;;;;11.38;3.30;;;;;;;-8.84;95.62;101238.50;15286877;19;20041;-57
2021/12/25 23:09:41;;;;;;;8.02;3.17;;;;;;;-8.89;95.93;101234.56;15285642;19;20011;-59
2021/12/25 23:14:43;;;;;;;6.07;1.85;;;;;;;-8.90;96.13;101235.34;15288528;19;20581;-58
2021/12/25 23:19:45;;;;;;;3.85;1.77;;;;;;;-8.93;96.09;101237.53;15287798;19;20011;-58
2021/12/25 23:24:52;;;;;;;8.00;2.33;;;;;;;-8.90;95.97;101222.66;15288035;19;20451;-58
2021/12/25 23:29:54;;;;;;;5.70;2.05;;;;;;;-8.95;96.04;101228.88;15284355;19;20019;-57
2021/12/25 23:34:55;;;;;;;10.60;2.53;;;;;;;-9.01;95.95;101226.59;15291392;19;20418;-57
2021/12/25 23:39:58;;;;;;;3.97;2.15;;;;;;;-9.09;95.75;101235.09;15290465;19;20014;-58
2021/12/25 23:45:04;;;;;;;7.43;1.98;;;;;;;-9.16;95.60;101233.56;15289471;19;20006;-58
2021/12/25 23:50:06;;;;;;;4.65;1.85;;;;;;;-9.13;95.57;101233.88;15290933;19;20019;-58
2021/12/25 23:55:09;;;;;;;5.80;1.80;;;;;;;-9.04;95.76;101236.44;15303410;19;20081;-57
